Time;durP1;ratioP1;P1;durP2;ratioP2;P2;SDS_P1;SDS_P2;PMS_P1;PMS_P2;Temp;Humidity;BMP_temperature;BMP_pressure;BME280_temperature;BME280_humidity;BME280_pressure;Samples;Min_cycle;Max_cycle;Signal;HPM_P1;HPM_P2
2020/12/01 00:01:55;;;;;;;26.93;18.53;;;1.70;99.90;;;;;;5115818;28;20261;-84
2020/12/01 00:04:21;;;;;;;35.03;21.97;;;1.70;99.90;;;;;;5115318;28;20177;-84
2020/12/01 00:06:46;;;;;;;28.47;19.33;;;1.50;99.90;;;;;;5116314;28;20174;-84
2020/12/01 00:09:12;;;;;;;29.93;18.77;;;2.00;99.90;;;;;;5115450;28;20423;-84
2020/12/01 00:11:38;;;;;;;25.57;18.17;;;2.10;99.90;;;;;;5116009;28;20205;-84
2020/12/01 00:14:04;;;;;;;25.93;18.87;;;1.40;99.90;;;;;;5114967;28;20811;-84
2020/12/01 00:16:30;;;;;;;24.47;19.03;;;1.50;99.90;;;;;;5114880;28;20174;-84
2020/12/01 00:18:56;;;;;;;27.63;18.90;;;1.60;99.90;;;;;;5115045;28;20427;-84
2020/12/01 00:21:22;;;;;;;24.87;17.33;;;1.80;99.90;;;;;;5114886;28;20586;-84
2020/12/01 00:23:48;;;;;;;29.70;20.67;;;1.70;99.90;;;;;;5114444;28;20450;-84
2020/12/01 00:26:18;;;;;;;28.93;18.83;;;1.80;99.90;;;;;;5114816;28;20177;-84
2020/12/01 00:28:48;;;;;;;28.23;21.07;;;1.60;99.90;;;;;;5114880;28;20483;-84
2020/12/01 00:31:14;;;;;;;28.50;18.27;;;1.90;99.90;;;;;;5114582;28;20415;-84
2020/12/01 00:33:40;;;;;;;28.80;17.60;;;1.50;99.90;;;;;;5113420;28;20966;-84
2020/12/01 00:36:06;;;;;;;32.93;20.47;;;1.60;99.90;;;;;;5114430;28;20937;-83
2020/12/01 00:38:32;;;;;;;31.80;20.63;;;1.60;99.90;;;;;;5114343;28;20416;-83
2020/12/01 00:40:58;;;;;;;27.70;17.93;;;1.80;99.90;;;;;;5096354;28;20438;-83
2020/12/01 00:43:23;;;;;;;34.83;20.93;;;1.80;99.90;;;;;;5114185;28;20420;-84
2020/12/01 00:45:49;;;;;;;25.33;17.60;;;1.80;99.90;;;;;;5114213;28;20177;-84
2020/12/01 00:48:16;;;;;;;31.13;19.90;;;2.00;99.90;;;;;;5114332;28;20621;-84
2020/12/01 00:50:42;;;;;;;32.07;19.70;;;1.80;99.90;;;;;;5114241;28;20177;-84
2020/12/01 00:53:09;;;;;;;31.10;20.03;;;2.10;99.90;;;;;;5114042;28;20491;-84
2020/12/01 00:55:35;;;;;;;32.23;22.93;;;1.60;99.90;;;;;;5113925;28;20404;-84
2020/12/01 00:58:03;;;;;;;32.20;20.33;;;1.50;99.90;;;;;;5114027;28;20772;-84
2020/12/01 01:00:30;;;;;;;37.57;21.57;;;1.50;99.90;;;;;;5114399;28;20541;-84
2020/12/01 01:02:56;;;;;;;30.70;20.40;;;1.40;99.90;;;;;;5113989;28;20447;-83
2020/12/01 01:05:22;;;;;;;34.83;19.57;;;1.40;99.90;;;;;;5114005;28;20554;-83
2020/12/01 01:07:48;;;;;;;25.57;16.90;;;1.90;99.90;;;;;;5113816;28;20177;-84
2020/12/01 01:10:17;;;;;;;37.87;22.00;;;1.70;99.90;;;;;;5114283;28;20504;-84
2020/12/01 01:12:43;;;;;;;37.97;19.30;;;2.10;99.90;;;;;;5114129;28;20467;-84
2020/12/01 01:15:08;;;;;;;34.17;20.10;;;2.10;99.90;;;;;;5113691;28;20813;-83
2020/12/01 01:17:34;;;;;;;27.47;19.10;;;1.90;99.90;;;;;;5113743;28;20180;-84
2020/12/01 01:20:00;;;;;;;26.90;16.97;;;2.40;99.90;;;;;;5113330;28;20252;-84
2020/12/01 01:22:25;;;;;;;24.20;16.10;;;2.00;99.90;;;;;;5113800;28;20202;-84
2020/12/01 01:24:51;;;;;;;30.13;17.93;;;2.30;99.90;;;;;;5113563;28;20178;-84
2020/12/01 01:27:16;;;;;;;25.63;14.90;;;2.40;99.90;;;;;;5113713;28;20269;-84
2020/12/01 01:29:42;;;;;;;32.67;20.83;;;2.00;99.90;;;;;;5113625;28;20177;-84
2020/12/01 01:32:07;;;;;;;27.80;20.77;;;1.80;99.90;;;;;;5113259;28;20648;-84
2020/12/01 01:34:33;;;;;;;18.53;13.10;;;2.00;99.90;;;;;;5129916;27;20194;-84
2020/12/01 01:36:59;;;;;;;30.73;20.70;;;2.10;99.90;;;;;;5116606;28;20178;-84
2020/12/01 01:39:24;;;;;;;37.17;20.60;;;2.10;99.90;;;;;;5117822;28;20185;-84
2020/12/01 01:41:50;;;;;;;34.50;20.47;;;1.70;99.90;;;;;;5116522;28;20177;-84
2020/12/01 01:44:41;;;;;;;33.80;21.47;;;1.60;99.90;;;;;;5117789;28;20180;-84
2020/12/01 01:47:26;;;;;;;34.37;20.70;;;2.00;99.90;;;;;;5114739;27;20214;-84
2020/12/01 01:49:56;;;;;;;28.50;20.77;;;2.50;99.90;;;;;;5116656;28;20887;-84
2020/12/01 01:52:30;;;;;;;32.00;20.50;;;2.60;99.90;;;;;;5117452;28;20475;-84
2020/12/01 01:55:01;;;;;;;32.13;21.77;;;2.10;99.90;;;;;;5118621;28;20486;-84
2020/12/01 01:57:28;;;;;;;32.00;21.20;;;2.20;99.90;;;;;;5120444;28;20754;-84
2020/12/01 01:59:55;;;;;;;30.27;21.13;;;2.20;99.90;;;;;;5117994;28;20439;-84
2020/12/01 02:02:21;;;;;;;29.47;20.27;;;1.70;99.90;;;;;;5117879;28;20938;-84
2020/12/01 02:04:46;;;;;;;29.53;20.70;;;2.10;99.90;;;;;;5117296;28;20415;-84
2020/12/01 02:07:12;;;;;;;27.67;20.03;;;1.40;99.90;;;;;;5117441;28;20180;-84
2020/12/01 02:09:43;;;;;;;30.53;20.20;;;1.90;99.90;;;;;;5117324;28;20180;-84
2020/12/01 02:12:11;;;;;;;30.03;19.83;;;2.10;99.90;;;;;;5117571;28;20174;-84
2020/12/01 02:14:41;;;;;;;30.03;19.27;;;2.00;99.90;;;;;;5117321;28;20420;-84
2020/12/01 02:17:29;;;;;;;29.43;19.70;;;1.50;99.90;;;;;;5117112;27;20419;-84
2020/12/01 02:19:57;;;;;;;26.43;18.30;;;1.40;99.90;;;;;;5115533;28;20415;-84
2020/12/01 02:22:26;;;;;;;30.63;20.23;;;1.90;99.90;;;;;;5116843;28;20900;-84
2020/12/01 02:24:53;;;;;;;23.97;17.00;;;2.10;99.90;;;;;;5117655;28;20416;-84
2020/12/01 02:27:22;;;;;;;31.30;20.60;;;1.80;99.90;;;;;;5120694;28;20426;-84
2020/12/01 02:29:51;;;;;;;32.10;22.03;;;1.50;99.90;;;;;;5117859;27;20430;-84
2020/12/01 02:32:18;;;;;;;27.43;17.07;;;2.10;99.90;;;;;;5117628;28;20950;-83
2020/12/01 02:34:46;;;;;;;31.60;20.30;;;1.30;99.90;;;;;;5117119;28;20427;-84
2020/12/01 02:37:17;;;;;;;27.53;18.20;;;1.90;99.90;;;;;;5116862;28;20907;-84
2020/12/01 02:39:43;;;;;;;29.43;19.47;;;1.60;99.90;;;;;;5116416;28;20883;-83
2020/12/01 02:42:14;;;;;;;29.03;18.83;;;2.10;99.90;;;;;;5116313;28;20411;-83
2020/12/01 02:44:40;;;;;;;28.60;19.40;;;2.30;99.90;;;;;;5116564;28;20824;-83
2020/12/01 02:47:06;;;;;;;27.43;17.47;;;1.90;99.90;;;;;;5115485;28;20420;-83
2020/12/01 02:49:33;;;;;;;29.67;20.20;;;1.90;99.90;;;;;;5116404;28;20181;-83
2020/12/01 02:51:59;;;;;;;31.50;22.47;;;2.20;99.90;;;;;;5116052;28;20464;-83
2020/12/01 02:54:25;;;;;;;33.10;21.70;;;2.30;99.90;;;;;;5116066;28;20423;-83
2020/12/01 02:56:51;;;;;;;25.67;18.53;;;2.50;99.90;;;;;;5115744;28;20253;-83
2020/12/01 02:59:17;;;;;;;29.17;19.83;;;1.90;99.90;;;;;;5115714;28;20323;-83
2020/12/01 03:01:43;;;;;;;33.60;20.77;;;2.30;99.90;;;;;;5115638;28;20318;-83
2020/12/01 03:04:09;;;;;;;30.80;17.60;;;2.40;99.90;;;;;;5115523;28;20420;-83
2020/12/01 03:06:34;;;;;;;29.33;20.07;;;2.60;99.90;;;;;;5115471;28;20516;-83
2020/12/01 03:09:00;;;;;;;26.23;18.37;;;2.70;99.90;;;;;;5115748;28;20178;-84
2020/12/01 03:11:26;;;;;;;24.23;17.70;;;2.30;99.90;;;;;;5115774;28;20178;-83
2020/12/01 03:13:51;;;;;;;30.87;19.70;;;2.50;99.90;;;;;;5114313;28;20221;-83
2020/12/01 03:16:17;;;;;;;28.30;19.00;;;2.20;99.90;;;;;;5115752;28;20178;-83
2020/12/01 03:18:45;;;;;;;33.07;20.17;;;2.40;99.90;;;;;;5115536;28;20637;-83
2020/12/01 03:21:14;;;;;;;23.63;16.07;;;2.70;99.90;;;;;;5115644;28;20170;-83
2020/12/01 03:23:40;;;;;;;21.60;15.83;;;2.70;99.90;;;;;;5114316;28;20511;-83
2020/12/01 03:26:06;;;;;;;27.93;18.00;;;2.40;99.90;;;;;;5115561;28;20430;-83
2020/12/01 03:28:32;;;;;;;30.60;18.37;;;2.90;99.90;;;;;;5114309;28;20428;-83
2020/12/01 03:30:58;;;;;;;27.37;17.70;;;2.50;99.90;;;;;;5115382;28;20408;-83
2020/12/01 03:33:24;;;;;;;30.40;16.77;;;2.80;99.90;;;;;;5113998;28;20209;-84
2020/12/01 03:35:50;;;;;;;26.03;18.13;;;2.50;99.90;;;;;;5115734;28;20460;-83
2020/12/01 03:38:16;;;;;;;28.20;17.10;;;2.60;99.90;;;;;;5115216;28;20170;-84
2020/12/01 03:40:42;;;;;;;29.80;18.70;;;2.50;99.90;;;;;;5115229;28;20415;-84
2020/12/01 03:43:07;;;;;;;27.37;15.73;;;2.60;99.90;;;;;;5115427;28;20187;-84
2020/12/01 03:45:33;;;;;;;29.90;18.50;;;2.70;99.90;;;;;;5114014;28;20174;-84
2020/12/01 03:47:59;;;;;;;24.27;15.50;;;2.80;99.90;;;;;;5115495;28;20177;-84
2020/12/01 03:50:27;;;;;;;28.13;17.93;;;2.70;99.90;;;;;;5115155;28;20223;-84
2020/12/01 03:52:53;;;;;;;29.23;18.63;;;3.40;99.90;;;;;;5115355;28;20637;-84
2020/12/01 03:55:20;;;;;;;33.20;18.07;;;2.80;99.90;;;;;;5115316;28;20447;-84
2020/12/01 03:57:46;;;;;;;26.67;17.77;;;2.90;99.90;;;;;;5114533;28;20846;-83
2020/12/01 04:00:17;;;;;;;22.80;17.10;;;2.80;99.90;;;;;;5115292;28;20452;-83
2020/12/01 04:02:43;;;;;;;27.07;15.60;;;3.20;99.90;;;;;;5113764;28;20170;-83
2020/12/01 04:05:09;;;;;;;21.93;15.03;;;2.30;99.90;;;;;;5113777;28;20443;-83
2020/12/01 04:07:35;;;;;;;27.80;16.93;;;2.10;99.90;;;;;;5114951;28;20396;-83
2020/12/01 04:10:01;;;;;;;25.00;15.90;;;2.10;99.90;;;;;;5114729;28;20414;-82
2020/12/01 04:12:28;;;;;;;25.50;17.17;;;2.60;99.90;;;;;;5114904;28;20205;-83
2020/12/01 04:14:54;;;;;;;29.70;18.67;;;2.50;99.90;;;;;;5116380;28;20184;-84
2020/12/01 04:17:20;;;;;;;22.13;16.07;;;2.50;99.90;;;;;;5114820;28;20817;-84
2020/12/01 04:19:46;;;;;;;20.17;13.20;;;2.30;99.90;;;;;;5114707;28;20415;-84
2020/12/01 04:22:12;;;;;;;20.17;14.57;;;2.50;99.90;;;;;;5114775;28;20420;-82
2020/12/01 04:24:39;;;;;;;72.90;46.07;;;2.40;99.90;;;;;;5114138;28;20181;-84
2020/12/01 04:27:05;;;;;;;35.83;20.67;;;2.70;99.90;;;;;;5130470;27;20424;-83
2020/12/01 04:29:32;;;;;;;19.77;15.30;;;3.40;99.90;;;;;;5096416;28;20416;-84
2020/12/01 04:31:57;;;;;;;23.30;15.73;;;3.10;99.90;;;;;;5114374;28;20412;-84
2020/12/01 04:34:23;;;;;;;33.30;21.17;;;2.80;99.90;;;;;;5113036;28;20471;-84
2020/12/01 04:36:48;;;;;;;23.93;14.77;;;2.60;99.90;;;;;;5114489;28;20533;-83
2020/12/01 04:39:14;;;;;;;23.43;16.73;;;2.70;99.90;;;;;;5130260;27;20275;-84
2020/12/01 04:41:40;;;;;;;23.33;15.80;;;2.10;99.90;;;;;;5130721;27;20170;-84
2020/12/01 04:44:22;;;;;;;28.53;20.60;;;2.10;99.90;;;;;;5114407;28;20157;-84
2020/12/01 04:46:48;;;;;;;26.37;17.93;;;2.10;99.90;;;;;;5115893;28;20169;-84
2020/12/01 04:49:34;;;;;;;24.07;17.27;;;2.10;99.90;;;;;;5114328;28;20461;-84
2020/12/01 04:52:39;;;;;;;25.90;14.97;;;2.40;99.90;;;;;;5112644;28;20512;-83
2020/12/01 04:55:18;;;;;;;22.90;15.50;;;2.40;99.90;;;;;;5114872;28;20891;-85
2020/12/01 04:57:49;;;;;;;21.77;13.63;;;2.40;99.90;;;;;;5114509;28;20426;-84
2020/12/01 05:00:24;;;;;;;24.70;15.30;;;2.30;99.90;;;;;;5112732;28;20510;-82
2020/12/01 05:03:30;;;;;;;24.43;17.00;;;2.40;99.90;;;;;;5113480;28;20423;-84
2020/12/01 05:06:26;;;;;;;24.70;15.30;;;2.30;99.90;;;;;;5114693;28;20460;-84
2020/12/01 05:08:59;;;;;;;23.97;15.03;;;2.20;99.90;;;;;;5115868;28;20423;-85
2020/12/01 05:11:55;;;;;;;35.77;19.00;;;1.80;99.90;;;;;;5118670;27;20495;-81
2020/12/01 05:14:33;;;;;;;27.97;15.87;;;2.30;99.90;;;;;;5120863;27;20525;-81
2020/12/01 05:17:42;;;;;;;29.73;19.10;;;2.20;99.90;;;;;;5117963;28;20416;-84
2020/12/01 05:20:08;;;;;;;28.20;19.20;;;2.20;99.90;;;;;;5117396;28;20416;-81
2020/12/01 05:22:34;;;;;;;28.93;20.00;;;1.90;99.90;;;;;;5117147;28;20415;-82
2020/12/01 05:25:00;;;;;;;27.10;18.70;;;1.70;99.90;;;;;;5117287;28;20174;-77
2020/12/01 05:27:34;;;;;;;28.30;21.00;;;2.10;99.90;;;;;;5117482;27;20204;-83
2020/12/01 05:30:19;;;;;;;35.87;25.03;;;2.10;99.90;;;;;;5120032;28;20418;-81
2020/12/01 05:32:55;;;;;;;28.47;20.10;;;1.90;99.90;;;;;;5118966;28;20459;-82
2020/12/01 05:35:33;;;;;;;25.50;18.37;;;2.10;99.90;;;;;;5116936;28;20423;-83
2020/12/01 05:38:17;;;;;;;27.80;19.10;;;1.60;99.90;;;;;;5117397;28;20506;-83
2020/12/01 05:40:52;;;;;;;30.50;20.60;;;2.00;99.90;;;;;;5117513;28;20415;-83
2020/12/01 05:43:30;;;;;;;37.03;21.27;;;2.10;99.90;;;;;;5118286;28;20443;-79
2020/12/01 05:46:28;;;;;;;35.33;22.43;;;2.00;99.90;;;;;;5117082;28;20422;-83
2020/12/01 05:49:02;;;;;;;31.17;23.03;;;2.00;99.90;;;;;;5082580;28;21009;-83
2020/12/01 05:51:42;;;;;;;43.40;29.10;;;1.70;99.90;;;;;;5117694;27;20454;-82
2020/12/01 05:54:29;;;;;;;33.47;23.00;;;1.70;99.90;;;;;;5118531;28;20470;-83
2020/12/01 05:56:55;;;;;;;35.23;22.40;;;2.00;99.90;;;;;;5119146;28;20408;-83
2020/12/01 05:59:22;;;;;;;34.73;23.43;;;2.10;99.90;;;;;;5118051;28;20418;-82
2020/12/01 06:01:53;;;;;;;28.80;19.73;;;1.70;99.90;;;;;;5117134;28;20165;-83
2020/12/01 06:04:25;;;;;;;26.60;19.03;;;1.60;99.90;;;;;;5117691;28;20419;-83
2020/12/01 06:07:00;;;;;;;39.67;20.70;;;2.10;99.90;;;;;;5115990;28;20828;-82
2020/12/01 06:09:36;;;;;;;36.93;22.87;;;2.00;99.90;;;;;;5116974;28;20455;-82
2020/12/01 06:12:16;;;;;;;30.47;21.63;;;2.10;99.90;;;;;;5117020;28;20427;-82
2020/12/01 06:14:50;;;;;;;26.23;19.60;;;2.10;99.90;;;;;;5115847;28;20452;-84
2020/12/01 06:18:05;;;;;;;34.47;21.07;;;2.20;99.90;;;;;;5116640;28;20469;-82
2020/12/01 06:20:43;;;;;;;29.30;19.10;;;2.20;99.90;;;;;;5116308;28;20814;-83
2020/12/01 06:23:48;;;;;;;32.67;20.93;;;2.10;99.90;;;;;;5117595;28;20412;-82
2020/12/01 06:30:12;;;;;;;32.60;19.33;;;2.10;99.90;;;;;;5122244;28;20991;-83
2020/12/01 06:32:40;;;;;;;37.83;20.70;;;1.80;99.90;;;;;;5054296;28;20548;-83
2020/12/01 06:35:55;;;;;;;30.37;21.40;;;1.80;99.90;;;;;;5107344;28;20431;-80
2020/12/01 06:38:45;;;;;;;33.77;19.00;;;2.20;99.90;;;;;;5090978;28;20777;-82
2020/12/01 06:41:15;;;;;;;41.27;21.90;;;2.50;99.90;;;;;;5075263;28;20409;-84
2020/12/01 06:43:52;;;;;;;30.63;20.83;;;2.40;99.90;;;;;;5134521;22;20491;-81
2020/12/01 06:46:30;;;;;;;31.90;21.97;;;1.90;99.90;;;;;;5049032;28;20419;-85
2020/12/01 06:48:56;;;;;;;41.20;25.10;;;2.20;99.90;;;;;;5041947;28;20457;-83
2020/12/01 06:51:22;;;;;;;32.63;21.13;;;2.40;99.90;;;;;;5052581;28;20484;-84
2020/12/01 06:53:48;;;;;;;34.13;21.97;;;2.30;99.90;;;;;;5053574;28;20515;-83
2020/12/01 06:56:17;;;;;;;25.60;17.80;;;2.40;99.90;;;;;;5042207;28;20446;-81
2020/12/01 06:58:48;;;;;;;31.90;21.83;;;1.90;99.90;;;;;;5035156;28;20268;-83
2020/12/01 07:01:23;;;;;;;34.50;23.20;;;2.30;99.90;;;;;;5034699;28;20411;-83
2020/12/01 07:04:06;;;;;;;31.83;19.97;;;2.30;99.90;;;;;;5032797;28;20775;-83
2020/12/01 07:06:32;;;;;;;32.20;19.70;;;3.10;99.90;;;;;;5034371;28;20412;-82
2020/12/01 07:09:09;;;;;;;29.83;18.90;;;2.90;99.90;;;;;;5035357;28;20438;-83
2020/12/01 07:11:51;;;;;;;33.10;20.83;;;2.20;99.90;;;;;;5033538;28;20180;-83
2020/12/01 07:14:22;;;;;;;26.30;18.30;;;2.50;99.90;;;;;;5034969;28;20470;-79
2020/12/01 07:16:49;;;;;;;30.03;18.00;;;2.50;99.90;;;;;;5033627;28;20513;-84
2020/12/01 07:19:35;;;;;;;26.07;17.53;;;2.40;99.90;;;;;;5033986;28;20428;-83
2020/12/01 07:22:07;;;;;;;29.00;19.37;;;2.00;99.90;;;;;;5033376;28;20486;-84
2020/12/01 07:24:43;;;;;;;34.27;21.40;;;2.50;99.90;;;;;;5034464;28;20427;-84
2020/12/01 07:27:21;;;;;;;29.60;20.03;;;2.00;99.90;;;;;;5034536;28;20431;-81
2020/12/01 07:30:10;;;;;;;35.10;19.53;;;2.60;99.90;;;;;;5033937;28;20950;-84
2020/12/01 07:32:59;;;;;;;27.27;18.87;;;2.50;99.90;;;;;;5038323;28;20451;-82
2020/12/01 07:35:37;;;;;;;26.73;18.73;;;2.40;99.90;;;;;;5033569;28;20420;-83
2020/12/01 07:38:28;;;;;;;27.17;19.53;;;2.30;99.90;;;;;;5034178;28;20533;-82
2020/12/01 07:41:12;;;;;;;33.87;22.20;;;2.50;99.90;;;;;;5033519;28;20459;-83
2020/12/01 07:43:38;;;;;;;25.77;17.90;;;2.00;99.90;;;;;;5035483;28;20497;-82
2020/12/01 07:46:04;;;;;;;25.33;20.50;;;2.10;99.90;;;;;;5034034;28;20435;-83
2020/12/01 07:48:30;;;;;;;39.97;24.87;;;2.60;99.90;;;;;;5033426;28;20421;-82
2020/12/01 07:51:08;;;;;;;34.80;24.30;;;2.50;99.90;;;;;;5034171;28;20767;-83
2020/12/01 07:53:41;;;;;;;30.37;20.57;;;2.40;99.90;;;;;;5035142;28;20466;-84
2020/12/01 07:56:10;;;;;;;28.40;19.00;;;2.20;99.90;;;;;;5033136;28;20477;-83
2020/12/01 07:58:35;;;;;;;29.40;20.80;;;2.20;99.90;;;;;;5037210;28;20423;-81
2020/12/01 08:01:12;;;;;;;28.50;19.33;;;2.10;99.90;;;;;;5036771;28;20481;-83
2020/12/01 08:03:38;;;;;;;30.13;19.40;;;2.00;99.90;;;;;;5034310;28;20180;-84
2020/12/01 08:06:07;;;;;;;36.80;23.70;;;2.00;99.90;;;;;;5035006;28;20545;-81
2020/12/01 08:08:35;;;;;;;26.93;18.60;;;2.00;99.90;;;;;;5034702;28;20419;-82
2020/12/01 08:11:03;;;;;;;27.97;18.10;;;2.50;99.90;;;;;;5034389;28;20418;-83
2020/12/01 08:13:32;;;;;;;30.90;19.20;;;2.50;99.90;;;;;;5035004;28;20463;-83
2020/12/01 08:16:03;;;;;;;31.87;20.50;;;2.50;99.90;;;;;;5034271;28;20803;-84
2020/12/01 08:18:30;;;;;;;34.03;21.73;;;2.20;99.90;;;;;;5034428;28;20542;-80
2020/12/01 08:20:57;;;;;;;28.57;18.57;;;2.30;99.90;;;;;;5035080;28;20408;-81
2020/12/01 08:23:27;;;;;;;26.63;19.90;;;2.70;99.90;;;;;;5034470;28;20477;-83
2020/12/01 08:25:56;;;;;;;31.33;19.97;;;2.30;99.90;;;;;;5032698;28;20485;-83
2020/12/01 08:28:27;;;;;;;29.47;19.80;;;2.40;99.90;;;;;;5033743;28;20420;-83
2020/12/01 08:31:49;;;;;;;18.37;13.53;;;2.70;99.90;;;;;;5032431;28;20451;-82
2020/12/01 08:34:38;;;;;;;19.97;12.37;;;2.70;99.90;;;;;;5001294;28;20485;-84
2020/12/01 08:37:28;;;;;;;18.90;14.10;;;2.20;99.90;;;;;;5032209;28;20450;-83
2020/12/01 08:40:27;;;;;;;17.40;12.30;;;2.80;99.90;;;;;;5032515;28;20439;-81
2020/12/01 08:43:36;;;;;;;17.57;10.73;;;2.80;99.90;;;;;;5032055;28;20427;-83
2020/12/01 08:46:09;;;;;;;12.77;9.60;;;2.40;99.90;;;;;;5032910;28;20465;-83
2020/12/01 08:48:38;;;;;;;17.17;12.80;;;2.30;99.90;;;;;;5034121;28;20415;-84
2020/12/01 08:51:06;;;;;;;16.10;11.37;;;2.60;99.90;;;;;;5033564;28;20982;-83
2020/12/01 08:53:50;;;;;;;17.47;12.00;;;2.70;99.90;;;;;;5034255;28;21005;-83
2020/12/01 08:56:26;;;;;;;13.77;10.77;;;2.30;99.90;;;;;;5034396;28;20542;-83
2020/12/01 08:58:54;;;;;;;25.57;17.73;;;2.90;99.90;;;;;;5033009;28;20614;-84
2020/12/01 09:01:20;;;;;;;27.70;20.03;;;2.80;99.90;;;;;;5033719;28;20445;-83
2020/12/01 09:03:58;;;;;;;24.93;17.70;;;2.30;99.90;;;;;;5033434;28;20844;-81
2020/12/01 09:06:31;;;;;;;23.37;17.23;;;2.70;99.90;;;;;;5033581;28;20850;-84
2020/12/01 09:09:05;;;;;;;26.27;16.60;;;2.30;99.90;;;;;;5034411;28;20477;-83
2020/12/01 09:17:10;;;;;;;23.27;17.30;;;2.70;99.90;;;;;;5032063;28;20457;-83
2020/12/01 09:22:35;;;;;;;25.00;15.93;;;2.60;99.90;;;;;;5034039;28;20426;-84
2020/12/01 09:25:22;;;;;;;26.63;20.90;;;2.60;99.90;;;;;;5031061;28;20514;-83
2020/12/01 09:27:50;;;;;;;22.80;16.83;;;2.90;99.90;;;;;;5033455;28;20423;-84
2020/12/01 09:30:35;;;;;;;14.00;8.20;;;2.90;99.90;;;;;;5032064;28;20927;-84
2020/12/01 09:33:01;;;;;;;11.53;7.43;;;3.20;99.90;;;;;;5033410;28;20482;-84
2020/12/01 09:35:27;;;;;;;8.07;5.83;;;2.60;99.90;;;;;;5033062;28;20781;-82
2020/12/01 09:37:53;;;;;;;8.53;7.60;;;2.50;99.90;;;;;;5033810;28;20415;-84
2020/12/01 09:40:20;;;;;;;7.83;6.23;;;2.80;99.90;;;;;;5032982;28;20423;-84
2020/12/01 09:42:50;;;;;;;6.10;5.50;;;3.00;99.90;;;;;;5033181;28;20177;-84
2020/12/01 09:45:25;;;;;;;11.90;7.50;;;2.50;99.90;;;;;;5031822;28;20475;-82
2020/12/01 09:48:04;;;;;;;7.83;6.27;;;2.90;99.90;;;;;;5033283;28;20418;-84
2020/12/01 09:50:33;;;;;;;10.83;8.43;;;3.00;99.90;;;;;;5031485;28;20423;-84
2020/12/01 10:02:50;;;;;;;6.30;5.70;;;2.90;99.90;;;;;;5036641;28;20446;-83
2020/12/01 10:09:15;;;;;;;7.10;5.60;;;2.90;99.90;;;;;;5037093;28;20461;-83
2020/12/01 10:22:33;;;;;;;8.73;6.97;;;2.90;99.90;;;;;;5036747;28;20839;-84
2020/12/01 10:35:23;;;;;;;11.40;6.67;;;2.90;99.90;;;;;;5036477;28;20518;-81
2020/12/01 10:37:51;;;;;;;11.13;7.73;;;2.80;99.90;;;;;;5037010;28;20443;-84
2020/12/01 10:40:17;;;;;;;10.23;8.57;;;2.40;99.90;;;;;;5036987;28;20806;-84
2020/12/01 10:42:43;;;;;;;8.50;7.60;;;2.80;99.90;;;;;;5036152;28;20431;-84
2020/12/01 10:45:08;;;;;;;9.20;7.30;;;2.90;99.90;;;;;;5035651;28;20458;-84
2020/12/01 10:47:34;;;;;;;27.40;14.30;;;2.40;99.90;;;;;;5035841;28;20176;-82
2020/12/01 10:50:00;;;;;;;7.37;6.60;;;3.00;99.90;;;;;;5034559;28;20183;-84
2020/12/01 10:52:25;;;;;;;7.30;6.60;;;2.60;99.90;;;;;;5035858;28;20961;-83
2020/12/01 10:54:51;;;;;;;6.73;5.97;;;2.80;99.90;;;;;;5035951;28;20172;-84
2020/12/01 10:57:16;;;;;;;10.17;6.80;;;2.90;99.90;;;;;;5035510;28;20259;-81
2020/12/01 10:59:42;;;;;;;8.00;6.20;;;2.70;99.90;;;;;;5036461;28;20263;-82
2020/12/01 11:02:07;;;;;;;12.23;8.70;;;3.00;99.90;;;;;;5035379;28;20179;-84
2020/12/01 11:04:33;;;;;;;8.73;7.73;;;3.20;99.90;;;;;;5035363;28;20177;-83
2020/12/01 11:06:59;;;;;;;7.10;6.50;;;3.10;99.90;;;;;;5035228;28;20180;-83
2020/12/01 11:09:24;;;;;;;7.83;6.50;;;2.80;99.90;;;;;;5035519;28;20180;-84
2020/12/01 11:11:50;;;;;;;6.80;6.10;;;2.70;99.90;;;;;;5036101;28;20176;-82
2020/12/01 11:14:15;;;;;;;9.97;6.47;;;3.20;99.90;;;;;;5036108;28;20623;-77
2020/12/01 11:16:41;;;;;;;8.03;6.87;;;2.80;99.90;;;;;;5017866;28;20246;-83
2020/12/01 11:19:06;;;;;;;10.90;7.97;;;2.60;99.90;;;;;;5038299;28;20172;-83
2020/12/01 11:21:36;;;;;;;10.83;9.73;;;2.80;99.90;;;;;;5034199;28;20224;-84
2020/12/01 11:24:02;;;;;;;8.90;6.93;;;3.20;99.90;;;;;;5035581;28;20655;-84
2020/12/01 11:26:28;;;;;;;11.00;8.83;;;3.20;99.90;;;;;;5035016;28;20415;-85
2020/12/01 11:28:53;;;;;;;10.43;9.43;;;3.00;99.90;;;;;;5034614;28;20780;-83
2020/12/01 11:31:19;;;;;;;9.03;8.13;;;3.30;99.90;;;;;;5034569;28;20169;-85
2020/12/01 11:34:09;;;;;;;8.87;7.97;;;2.80;99.90;;;;;;5034580;28;20665;-83
2020/12/01 11:36:36;;;;;;;13.23;9.90;;;3.20;99.90;;;;;;5035542;28;20173;-82
2020/12/01 11:39:04;;;;;;;15.07;12.10;;;3.20;99.90;;;;;;5034597;28;20423;-84
2020/12/01 11:41:30;;;;;;;13.20;10.47;;;2.90;99.90;;;;;;5034775;28;20404;-84
2020/12/01 11:43:56;;;;;;;14.80;10.67;;;3.20;99.90;;;;;;5033372;28;20965;-82
2020/12/01 11:46:21;;;;;;;13.70;8.83;;;3.30;99.90;;;;;;5035262;28;20260;-83
2020/12/01 11:48:47;;;;;;;13.37;10.57;;;3.40;99.90;;;;;;5033931;28;20662;-84
2020/12/01 11:51:14;;;;;;;10.50;8.50;;;3.10;99.90;;;;;;5035340;28;20172;-84
2020/12/01 11:53:39;;;;;;;10.23;9.03;;;3.50;99.90;;;;;;5034689;28;20553;-83
2020/12/01 11:56:05;;;;;;;10.13;7.97;;;3.30;99.90;;;;;;5033352;28;20429;-83
2020/12/01 11:58:31;;;;;;;10.90;9.63;;;3.40;99.90;;;;;;5034837;28;20181;-84
2020/12/01 12:00:57;;;;;;;9.43;8.43;;;3.10;99.90;;;;;;5034488;28;20180;-85
2020/12/01 12:03:22;;;;;;;11.33;9.33;;;3.30;99.90;;;;;;5033336;28;20181;-84
2020/12/01 12:05:48;;;;;;;6.47;5.83;;;3.40;99.90;;;;;;5033837;28;20223;-83
2020/12/01 12:08:13;;;;;;;9.50;8.53;;;3.40;99.90;;;;;;5034145;28;20263;-83
2020/12/01 12:10:39;;;;;;;12.50;8.90;;;3.40;99.90;;;;;;5034993;28;20199;-83
2020/12/01 12:13:04;;;;;;;16.17;9.47;;;3.40;99.90;;;;;;5034573;28;20204;-84
2020/12/01 12:15:30;;;;;;;8.63;6.93;;;3.50;99.90;;;;;;5034088;28;20168;-83
2020/12/01 12:17:56;;;;;;;11.17;8.33;;;3.20;99.90;;;;;;5033621;28;20188;-84
2020/12/01 12:20:21;;;;;;;13.13;11.30;;;3.10;99.90;;;;;;5032907;28;20181;-83
2020/12/01 12:22:48;;;;;;;15.37;13.70;;;3.10;99.90;;;;;;5034250;28;20173;-83
2020/12/01 12:25:16;;;;;;;14.57;12.30;;;3.60;99.90;;;;;;5034214;28;20169;-84
2020/12/01 12:27:45;;;;;;;18.17;16.20;;;3.50;99.90;;;;;;5036004;28;20434;-83
2020/12/01 12:30:10;;;;;;;21.37;19.07;;;3.20;99.90;;;;;;5032872;28;20889;-83
2020/12/01 12:32:36;;;;;;;13.37;12.00;;;3.50;99.90;;;;;;5034021;28;20483;-83
2020/12/01 12:35:03;;;;;;;23.13;20.47;;;3.50;99.90;;;;;;5034181;28;20184;-83
2020/12/01 12:37:28;;;;;;;12.03;9.73;;;3.20;99.90;;;;;;5033982;28;20192;-84
2020/12/01 12:39:54;;;;;;;12.60;10.63;;;3.60;99.90;;;;;;5033063;28;20431;-84
2020/12/01 12:42:20;;;;;;;12.30;11.00;;;3.50;99.90;;;;;;5033995;28;20371;-83
2020/12/01 12:44:45;;;;;;;11.20;9.80;;;3.50;99.90;;;;;;5035127;28;20228;-84
2020/12/01 12:47:11;;;;;;;16.50;10.80;;;3.20;99.90;;;;;;5034162;28;20258;-83
2020/12/01 12:49:36;;;;;;;12.07;10.60;;;3.50;99.90;;;;;;5034475;28;20211;-83
2020/12/01 12:52:02;;;;;;;13.93;10.13;;;3.20;99.90;;;;;;5033445;28;20172;-85
2020/12/01 12:54:28;;;;;;;10.13;9.07;;;3.60;99.90;;;;;;5017874;28;20687;-81
2020/12/01 12:56:56;;;;;;;9.07;8.17;;;3.20;99.90;;;;;;5035268;28;20172;-84
2020/12/01 12:59:21;;;;;;;14.20;9.80;;;3.40;99.90;;;;;;5033992;28;20231;-84
2020/12/01 13:01:47;;;;;;;11.43;8.80;;;3.40;99.90;;;;;;5032824;28;20423;-85
2020/12/01 13:04:15;;;;;;;10.40;9.30;;;3.50;99.90;;;;;;5034061;28;20196;-86
2020/12/01 13:06:40;;;;;;;10.07;8.93;;;3.10;99.90;;;;;;5035202;28;20173;-84
2020/12/01 13:09:06;;;;;;;13.00;11.60;;;3.40;99.90;;;;;;5034484;28;20506;-83
2020/12/01 13:11:32;;;;;;;20.23;15.10;;;3.40;99.90;;;;;;5034868;28;20181;-83
2020/12/01 13:13:58;;;;;;;19.73;14.80;;;3.40;99.90;;;;;;5035807;28;20208;-84
2020/12/01 13:16:23;;;;;;;16.60;13.80;;;3.40;99.90;;;;;;5032994;28;20575;-84
2020/12/01 13:18:49;;;;;;;16.17;12.90;;;3.00;99.90;;;;;;5032536;28;20644;-84
2020/12/01 13:21:14;;;;;;;18.10;14.53;;;3.40;99.90;;;;;;5034094;28;20169;-83
2020/12/01 13:23:40;;;;;;;25.63;14.57;;;2.80;99.90;;;;;;5034511;28;20176;-82
2020/12/01 13:26:06;;;;;;;19.47;13.97;;;3.20;99.90;;;;;;5034357;28;20184;-84
2020/12/01 13:28:31;;;;;;;16.70;13.13;;;2.80;99.90;;;;;;5034687;28;20267;-84
2020/12/01 13:30:57;;;;;;;17.87;12.83;;;3.20;99.90;;;;;;5038318;28;20172;-84
2020/12/01 13:33:23;;;;;;;16.80;13.90;;;2.90;99.90;;;;;;5039678;28;20749;-84
2020/12/01 13:35:48;;;;;;;17.90;13.20;;;2.90;99.90;;;;;;5040730;28;20429;-84
2020/12/01 13:38:14;;;;;;;19.00;13.47;;;3.10;99.90;;;;;;5043212;28;20176;-84
2020/12/01 13:40:40;;;;;;;16.73;13.20;;;3.30;99.90;;;;;;5042456;28;20203;-85
2020/12/01 13:43:05;;;;;;;20.97;13.50;;;2.80;99.90;;;;;;5041126;28;20263;-85
2020/12/01 13:45:31;;;;;;;24.27;14.27;;;3.10;99.90;;;;;;5043446;28;20231;-84